createdAt,value
2022-12-28T00:00:50.514Z,11.17
2022-12-28T00:03:20.727Z,11.03
2022-12-28T00:05:51.523Z,11.00
2022-12-28T00:08:21.714Z,11.90
2022-12-28T00:11:08.289Z,13.27
2022-12-28T00:13:40.578Z,11.13
2022-12-28T00:16:28.300Z,12.90
2022-12-28T00:19:01.938Z,10.30
2022-12-28T00:21:30.256Z,9.13
2022-12-28T00:24:00.070Z,7.50
2022-12-28T00:26:32.665Z,10.43
2022-12-28T00:31:50.103Z,8.97
2022-12-28T00:34:20.067Z,10.07
2022-12-28T00:37:12.003Z,9.13
2022-12-28T00:39:43.170Z,9.40
2022-12-28T00:42:16.375Z,9.77
2022-12-28T00:44:53.018Z,10.87
2022-12-28T00:47:21.196Z,9.13
2022-12-28T00:50:10.369Z,10.23
2022-12-28T00:52:37.552Z,10.33
2022-12-28T00:55:06.458Z,9.87
2022-12-28T00:57:37.896Z,9.17
2022-12-28T01:00:08.637Z,9.30
2022-12-28T01:02:38.452Z,8.83
2022-12-28T01:05:07.086Z,7.73
2022-12-28T01:07:37.650Z,8.40
2022-12-28T01:10:07.256Z,9.00
2022-12-28T01:12:38.630Z,8.77
2022-12-28T01:15:11.320Z,7.57
2022-12-28T01:20:24.744Z,9.90
2022-12-28T01:22:53.080Z,9.00
2022-12-28T01:25:21.745Z,9.73
2022-12-28T01:27:48.744Z,10.53
2022-12-28T01:30:20.277Z,8.90
2022-12-28T01:32:53.596Z,8.47
2022-12-28T01:35:30.756Z,9.10
2022-12-28T01:38:00.872Z,8.63
2022-12-28T01:40:27.855Z,6.60
2022-12-28T01:42:56.269Z,6.77
2022-12-28T01:45:24.670Z,6.70
2022-12-28T01:47:56.572Z,5.90
2022-12-28T01:50:30.985Z,6.57
2022-12-28T01:53:05.163Z,6.43
2022-12-28T01:55:40.174Z,7.20
2022-12-28T01:58:18.497Z,6.57
2022-12-28T02:00:46.981Z,6.53
2022-12-28T02:03:26.061Z,7.97
2022-12-28T02:05:57.670Z,7.27
2022-12-28T02:09:03.993Z,8.10
2022-12-28T02:11:32.068Z,8.47
2022-12-28T02:14:10.680Z,7.83
2022-12-28T02:16:39.117Z,7.43
2022-12-28T02:19:13.694Z,8.67
2022-12-28T02:22:39.134Z,9.47
2022-12-28T02:25:53.405Z,10.47
2022-12-28T02:28:41.434Z,9.40
2022-12-28T02:31:18.505Z,8.37
2022-12-28T02:34:01.059Z,7.30
2022-12-28T02:36:37.246Z,7.63
2022-12-28T02:39:35.752Z,8.83
2022-12-28T02:42:06.615Z,6.90
2022-12-28T02:45:00.413Z,7.10
2022-12-28T02:47:50.757Z,6.50
2022-12-28T02:50:18.731Z,6.70
2022-12-28T02:53:09.652Z,7.57
2022-12-28T02:56:07.900Z,6.60
2022-12-28T02:58:58.379Z,7.43
2022-12-28T03:02:30.863Z,10.13
2022-12-28T03:06:02.889Z,8.10
2022-12-28T03:08:59.614Z,6.53
2022-12-28T03:11:43.687Z,8.50
2022-12-28T03:14:18.280Z,5.17
2022-12-28T03:17:09.661Z,6.23
2022-12-28T03:20:04.231Z,7.53
2022-12-28T03:22:55.552Z,7.40
2022-12-28T03:25:59.880Z,7.57
2022-12-28T03:28:56.666Z,9.23
2022-12-28T03:31:27.627Z,7.63
2022-12-28T03:34:07.471Z,6.33
2022-12-28T03:37:21.841Z,8.20
2022-12-28T03:40:04.549Z,6.40
2022-12-28T03:43:01.233Z,6.57
2022-12-28T03:46:02.050Z,7.53
2022-12-28T03:48:34.608Z,6.17
2022-12-28T03:51:07.959Z,8.30
2022-12-28T03:53:43.351Z,7.43
2022-12-28T03:56:26.453Z,6.27
2022-12-28T03:58:59.939Z,6.37
2022-12-28T04:01:39.273Z,4.73
2022-12-28T04:04:07.443Z,5.27
2022-12-28T04:06:36.372Z,5.90
2022-12-28T04:09:07.375Z,6.30
2022-12-28T04:11:41.597Z,6.47
2022-12-28T04:19:45.045Z,6.20
2022-12-28T04:22:25.425Z,8.40
2022-12-28T04:24:56.495Z,8.53
2022-12-28T04:27:24.272Z,7.77
2022-12-28T04:29:55.497Z,6.10
2022-12-28T04:35:09.558Z,7.00
2022-12-28T04:37:47.504Z,5.80
2022-12-28T04:40:17.924Z,6.93
2022-12-28T04:42:46.141Z,4.47
2022-12-28T04:45:21.931Z,6.37
2022-12-28T04:47:52.030Z,6.33
2022-12-28T04:50:33.355Z,5.90
2022-12-28T04:53:06.446Z,4.93
2022-12-28T04:55:48.016Z,5.07
2022-12-28T04:58:19.594Z,4.87
2022-12-28T05:00:47.292Z,5.20
2022-12-28T05:03:15.339Z,5.07
2022-12-28T05:05:46.721Z,5.23
2022-12-28T05:08:14.981Z,5.30
2022-12-28T05:10:42.996Z,6.23
2022-12-28T05:13:20.104Z,6.77
2022-12-28T05:18:30.939Z,12.13
2022-12-28T05:21:21.425Z,10.50
2022-12-28T05:23:52.133Z,7.70
2022-12-28T05:26:25.996Z,11.97
2022-12-28T05:28:59.256Z,7.97
2022-12-28T05:31:27.677Z,6.37
2022-12-28T05:33:56.104Z,7.53
2022-12-28T05:36:33.776Z,7.20
2022-12-28T05:39:04.996Z,7.63
2022-12-28T05:41:34.553Z,7.40
2022-12-28T05:44:03.195Z,8.43
2022-12-28T05:46:35.238Z,6.30
2022-12-28T05:49:03.736Z,12.57
2022-12-28T05:54:14.199Z,15.17
2022-12-28T05:56:42.383Z,10.50
2022-12-28T05:59:12.382Z,6.63
2022-12-28T06:01:43.436Z,8.90
2022-12-28T06:04:21.432Z,6.93
2022-12-28T06:06:50.099Z,7.93
2022-12-28T06:09:27.373Z,6.93
2022-12-28T06:11:55.639Z,6.50
2022-12-28T06:14:24.533Z,6.93
2022-12-28T06:16:53.749Z,6.43
2022-12-28T06:19:25.284Z,7.20
2022-12-28T06:21:58.121Z,6.43
2022-12-28T06:24:27.804Z,7.07
2022-12-28T06:26:58.336Z,6.73
2022-12-28T06:29:26.252Z,7.53
2022-12-28T06:31:57.657Z,7.13
2022-12-28T06:34:25.221Z,5.43
2022-12-28T06:36:53.814Z,6.17
2022-12-28T06:39:25.311Z,6.00
2022-12-28T06:42:02.052Z,6.13
2022-12-28T06:44:32.548Z,6.40
2022-12-28T06:46:59.530Z,6.33
2022-12-28T06:49:28.242Z,5.23
2022-12-28T06:51:56.337Z,5.40
2022-12-28T06:54:27.853Z,5.30
2022-12-28T06:56:56.201Z,8.50
2022-12-28T06:59:25.782Z,6.67
2022-12-28T07:01:52.856Z,7.37
2022-12-28T07:04:25.414Z,6.77
2022-12-28T07:09:38.153Z,6.47
2022-12-28T07:12:09.884Z,7.10
2022-12-28T07:14:39.746Z,7.43
2022-12-28T07:17:08.984Z,7.73
2022-12-28T07:19:36.222Z,7.17
2022-12-28T07:24:48.683Z,6.53
2022-12-28T07:27:18.841Z,10.13
2022-12-28T07:32:31.113Z,9.27
2022-12-28T07:34:59.133Z,7.33
2022-12-28T07:37:27.540Z,8.67
2022-12-28T07:39:58.404Z,9.43
2022-12-28T07:42:33.368Z,8.73
2022-12-28T07:47:44.587Z,9.40
2022-12-28T07:50:16.003Z,10.90
2022-12-28T07:52:46.565Z,12.67
2022-12-28T07:55:16.025Z,14.00
2022-12-28T07:57:53.211Z,8.97
2022-12-28T08:00:24.006Z,12.37
2022-12-28T08:02:56.204Z,11.27
2022-12-28T08:05:25.773Z,14.37
2022-12-28T08:07:53.707Z,10.83
2022-12-28T08:10:25.976Z,10.30
2022-12-28T08:12:55.276Z,11.47
2022-12-28T08:15:25.978Z,8.57
2022-12-28T08:17:57.978Z,9.37
2022-12-28T08:20:28.802Z,9.60
2022-12-28T08:22:57.587Z,10.20
2022-12-28T08:25:25.805Z,9.83
2022-12-28T08:27:55.086Z,11.27
2022-12-28T08:33:05.181Z,8.97
2022-12-28T08:35:35.842Z,9.20
2022-12-28T08:38:07.209Z,10.07
2022-12-28T08:40:35.819Z,12.40
2022-12-28T08:43:04.227Z,10.60
2022-12-28T08:45:33.273Z,11.03
2022-12-28T08:48:03.794Z,9.53
2022-12-28T08:50:33.197Z,10.47
2022-12-28T08:53:03.782Z,10.30
2022-12-28T08:55:33.961Z,10.73
2022-12-28T08:58:04.927Z,10.73
2022-12-28T09:00:32.227Z,9.97
2022-12-28T09:03:05.747Z,9.53
2022-12-28T09:05:39.690Z,8.50
2022-12-28T09:08:08.264Z,10.17
2022-12-28T09:10:36.782Z,10.20
2022-12-28T09:13:04.731Z,9.57
2022-12-28T09:15:35.770Z,8.97
2022-12-28T09:18:06.103Z,8.27
2022-12-28T09:20:39.108Z,8.77
2022-12-28T09:23:07.843Z,9.60
2022-12-28T09:25:36.103Z,6.87
2022-12-28T09:28:05.511Z,6.70
2022-12-28T09:30:34.019Z,6.87
2022-12-28T09:33:22.544Z,6.50
2022-12-28T09:35:52.737Z,7.87
2022-12-28T09:38:21.244Z,7.93
2022-12-28T09:40:48.205Z,6.63
2022-12-28T09:43:20.592Z,6.73
2022-12-28T09:45:52.726Z,6.23
2022-12-28T09:48:23.467Z,6.70
2022-12-28T09:50:53.662Z,6.40
2022-12-28T09:53:36.660Z,7.47
2022-12-28T09:56:30.052Z,7.00
2022-12-28T09:58:59.159Z,7.63
2022-12-28T10:01:29.736Z,7.07
2022-12-28T10:04:01.147Z,6.63
2022-12-28T10:06:36.199Z,6.20
2022-12-28T10:09:13.096Z,6.90
2022-12-28T10:11:42.788Z,6.17
2022-12-28T10:14:39.742Z,5.60
2022-12-28T10:17:12.306Z,4.87
2022-12-28T10:19:40.743Z,5.13
2022-12-28T10:22:13.802Z,6.47
2022-12-28T10:24:45.331Z,5.10
2022-12-28T10:27:33.661Z,6.73
2022-12-28T10:30:13.560Z,6.77
2022-12-28T10:33:02.182Z,8.57
2022-12-28T10:35:41.648Z,7.40
2022-12-28T10:38:34.173Z,8.23
2022-12-28T10:41:14.477Z,9.37
2022-12-28T10:43:54.215Z,10.40
2022-12-28T10:46:35.148Z,11.03
2022-12-28T10:49:04.574Z,9.83
2022-12-28T10:51:36.470Z,10.23
2022-12-28T10:54:06.195Z,10.43
2022-12-28T10:56:48.259Z,13.07
2022-12-28T10:59:28.156Z,14.10
2022-12-28T11:02:16.148Z,13.30
2022-12-28T11:04:58.886Z,13.53
2022-12-28T11:07:37.731Z,14.27
2022-12-28T11:10:27.129Z,14.30
2022-12-28T11:12:57.009Z,12.70
2022-12-28T11:15:33.099Z,15.20
2022-12-28T11:18:07.067Z,18.03
2022-12-28T11:20:39.580Z,14.20
2022-12-28T11:23:09.207Z,15.83
2022-12-28T11:25:37.334Z,15.90
2022-12-28T11:31:16.605Z,14.23
2022-12-28T11:33:46.158Z,15.00
2022-12-28T11:36:40.996Z,16.03
2022-12-28T11:39:29.674Z,16.70
2022-12-28T11:42:28.208Z,17.47
2022-12-28T11:44:51.926Z,14.90
2022-12-28T11:47:33.556Z,13.70
2022-12-28T11:50:34.916Z,15.43
2022-12-28T11:53:06.639Z,15.53
2022-12-28T11:56:09.071Z,14.07
2022-12-28T11:58:42.366Z,14.67
2022-12-28T12:01:11.184Z,14.30
2022-12-28T12:04:03.749Z,16.30
2022-12-28T12:06:48.777Z,15.20
2022-12-28T12:09:26.788Z,15.27
2022-12-28T12:11:59.038Z,13.73
2022-12-28T12:15:01.346Z,18.13
2022-12-28T12:17:55.785Z,13.63
2022-12-28T12:20:27.248Z,14.77
2022-12-28T12:23:07.678Z,15.40
2022-12-28T12:25:51.871Z,15.20
2022-12-28T12:28:43.558Z,13.97
2022-12-28T12:31:23.335Z,13.03
2022-12-28T12:33:56.893Z,15.80
2022-12-28T12:36:47.702Z,13.97
2022-12-28T12:39:40.945Z,15.10
2022-12-28T12:42:32.179Z,16.47
2022-12-28T12:45:48.936Z,15.03
2022-12-28T12:48:35.077Z,14.60
2022-12-28T12:51:56.617Z,16.43
2022-12-28T12:54:48.714Z,13.83
2022-12-28T12:57:35.184Z,15.40
2022-12-28T13:00:23.838Z,14.57
2022-12-28T13:03:37.665Z,14.23
2022-12-28T13:06:07.219Z,16.17
2022-12-28T13:09:06.221Z,16.17
2022-12-28T13:11:38.787Z,14.93
2022-12-28T13:14:22.017Z,16.27
2022-12-28T13:16:55.653Z,14.87
2022-12-28T13:19:28.993Z,15.37
2022-12-28T13:21:59.183Z,14.83
2022-12-28T13:24:33.542Z,15.83
2022-12-28T13:27:05.051Z,16.80
2022-12-28T13:32:38.046Z,17.83
2022-12-28T13:35:19.307Z,17.13
2022-12-28T13:38:13.662Z,18.40
2022-12-28T13:40:52.795Z,16.80
2022-12-28T13:44:02.148Z,16.93
2022-12-28T13:46:33.134Z,16.37
2022-12-28T13:49:03.705Z,18.20
2022-12-28T13:51:40.761Z,15.40
2022-12-28T13:54:16.947Z,15.60
2022-12-28T13:56:48.324Z,16.67
2022-12-28T13:59:18.786Z,15.80
2022-12-28T14:01:52.708Z,15.53
2022-12-28T14:04:51.909Z,14.80
2022-12-28T14:07:17.507Z,16.37
2022-12-28T14:09:48.683Z,18.63
2022-12-28T14:15:00.743Z,15.60
2022-12-28T14:17:29.998Z,17.17
2022-12-28T14:19:58.390Z,16.03
2022-12-28T14:22:35.233Z,17.13
2022-12-28T14:25:11.274Z,16.17
2022-12-28T14:27:43.894Z,16.53
2022-12-28T14:30:33.603Z,17.37
2022-12-28T14:33:19.420Z,18.07
2022-12-28T14:35:59.324Z,17.10
2022-12-28T14:38:34.745Z,14.97
2022-12-28T14:43:56.970Z,15.73
2022-12-28T14:46:38.939Z,15.50
2022-12-28T14:49:35.470Z,17.83
2022-12-28T14:52:08.595Z,16.17
2022-12-28T14:54:48.950Z,15.97
2022-12-28T14:57:33.179Z,16.43
2022-12-28T15:00:35.798Z,16.70
2022-12-28T15:03:20.102Z,16.47
2022-12-28T15:06:01.160Z,18.17
2022-12-28T15:08:31.865Z,19.30
2022-12-28T15:11:00.339Z,18.43
2022-12-28T15:13:28.146Z,21.93
2022-12-28T15:16:02.619Z,16.30
2022-12-28T15:18:33.645Z,18.20
2022-12-28T15:21:08.654Z,18.00
2022-12-28T15:23:39.456Z,15.90
2022-12-28T15:26:13.699Z,15.47
2022-12-28T15:28:42.416Z,16.77
2022-12-28T15:31:21.372Z,18.27
2022-12-28T15:33:49.319Z,19.23
2022-12-28T15:36:20.215Z,21.17
2022-12-28T15:38:49.266Z,23.33
2022-12-28T15:41:39.090Z,20.80
2022-12-28T15:44:08.550Z,21.63
2022-12-28T15:46:36.473Z,16.97
2022-12-28T15:49:06.800Z,18.33
2022-12-28T15:51:36.711Z,16.40
2022-12-28T15:54:05.826Z,17.77
2022-12-28T15:56:36.441Z,17.23
2022-12-28T15:59:07.494Z,17.63
2022-12-28T16:01:39.315Z,18.37
2022-12-28T16:04:06.558Z,18.33
2022-12-28T16:06:40.063Z,16.23
2022-12-28T16:09:15.893Z,18.80
2022-12-28T16:11:42.939Z,20.90
2022-12-28T16:14:16.850Z,17.67
2022-12-28T16:16:47.243Z,18.30
2022-12-28T16:19:16.807Z,17.37
2022-12-28T16:21:47.386Z,18.00
2022-12-28T16:24:18.387Z,18.07
2022-12-28T16:26:47.146Z,18.23
2022-12-28T16:29:16.757Z,16.40
2022-12-28T16:31:43.876Z,15.93
2022-12-28T16:34:17.277Z,17.80
2022-12-28T16:39:33.739Z,21.10
2022-12-28T16:42:08.898Z,19.77
2022-12-28T16:44:39.536Z,18.27
2022-12-28T16:47:09.694Z,17.97
2022-12-28T16:49:41.143Z,17.03
2022-12-28T16:52:09.165Z,15.43
2022-12-28T16:54:38.909Z,16.70
2022-12-28T16:57:09.711Z,16.93
2022-12-28T16:59:39.224Z,16.03
2022-12-28T17:02:09.104Z,15.83
2022-12-28T17:04:40.191Z,14.13
2022-12-28T17:07:08.133Z,15.17
2022-12-28T17:09:35.688Z,14.67
2022-12-28T17:12:03.157Z,13.73
2022-12-28T17:17:13.298Z,14.37
2022-12-28T17:19:41.315Z,14.10
2022-12-28T17:22:09.120Z,15.43
2022-12-28T17:24:39.566Z,14.30
2022-12-28T17:27:11.792Z,14.97
2022-12-28T17:29:45.449Z,12.93
2022-12-28T17:32:12.616Z,13.30
2022-12-28T17:34:40.148Z,21.50
2022-12-28T17:37:19.794Z,19.27
2022-12-28T17:39:49.571Z,15.73
2022-12-28T17:42:19.867Z,17.37
2022-12-28T17:44:51.585Z,18.03
2022-12-28T17:47:20.205Z,18.97
2022-12-28T17:49:47.281Z,16.33
2022-12-28T17:52:20.135Z,16.80
2022-12-28T17:54:50.498Z,17.67
2022-12-28T17:57:20.055Z,18.40
2022-12-28T17:59:47.171Z,16.03
2022-12-28T18:02:16.809Z,14.03
2022-12-28T18:04:44.121Z,14.67
2022-12-28T18:07:11.213Z,14.50
2022-12-28T18:09:39.893Z,17.60
2022-12-28T18:12:09.812Z,15.23
2022-12-28T18:14:37.416Z,19.53
2022-12-28T18:17:05.845Z,17.83
2022-12-28T18:19:35.645Z,19.03
2022-12-28T18:22:06.911Z,16.10
2022-12-28T18:24:39.825Z,18.83
2022-12-28T18:27:07.384Z,19.73
2022-12-28T18:29:36.164Z,19.17
2022-12-28T18:32:06.370Z,17.63
2022-12-28T18:34:37.826Z,18.37
2022-12-28T18:37:06.972Z,16.87
2022-12-28T18:39:35.848Z,17.40
2022-12-28T18:42:06.534Z,17.10
2022-12-28T18:44:36.635Z,18.40
2022-12-28T18:47:05.247Z,20.40
2022-12-28T18:49:33.189Z,17.70
2022-12-28T18:52:02.610Z,17.20
2022-12-28T18:54:33.352Z,17.77
2022-12-28T18:57:04.862Z,17.97
2022-12-28T18:59:33.388Z,18.80
2022-12-28T19:02:07.036Z,18.30
2022-12-28T19:04:39.062Z,17.60
2022-12-28T19:07:06.410Z,17.07
2022-12-28T19:09:40.572Z,19.13
2022-12-28T19:12:08.749Z,20.83
2022-12-28T19:14:37.265Z,20.13
2022-12-28T19:17:06.530Z,20.97
2022-12-28T19:19:37.027Z,19.87
2022-12-28T19:22:09.527Z,21.90
2022-12-28T19:24:39.815Z,20.13
2022-12-28T19:27:09.519Z,20.50
2022-12-28T19:29:37.191Z,18.97
2022-12-28T19:32:07.160Z,19.50
2022-12-28T19:34:36.114Z,17.33
2022-12-28T19:37:06.565Z,19.40
2022-12-28T19:39:36.866Z,23.20
2022-12-28T19:42:08.454Z,22.33
2022-12-28T19:44:36.242Z,23.70
2022-12-28T19:47:17.652Z,24.77
2022-12-28T19:52:32.940Z,27.13
2022-12-28T19:55:03.687Z,28.30
2022-12-28T19:57:33.140Z,28.43
2022-12-28T20:00:03.159Z,32.17
2022-12-28T20:02:34.093Z,31.73
2022-12-28T20:05:04.460Z,29.17
2022-12-28T20:07:35.130Z,30.10
2022-12-28T20:10:03.741Z,27.07
2022-12-28T20:12:32.837Z,24.43
2022-12-28T20:15:04.436Z,24.33
2022-12-28T20:17:41.564Z,26.40
2022-12-28T20:20:16.811Z,31.00
2022-12-28T20:22:45.284Z,32.37
2022-12-28T20:25:16.864Z,26.83
2022-12-28T20:27:46.560Z,25.77
2022-12-28T20:33:00.071Z,25.10
2022-12-28T20:35:31.087Z,22.13
2022-12-28T20:40:44.829Z,20.57
2022-12-28T20:43:26.094Z,22.00
2022-12-28T20:46:04.844Z,20.90
2022-12-28T20:48:32.070Z,19.97
2022-12-28T20:51:09.825Z,20.03
2022-12-28T20:53:40.381Z,19.90
2022-12-28T20:56:11.103Z,20.17
2022-12-28T20:58:40.590Z,22.77
2022-12-28T21:01:12.262Z,23.17
2022-12-28T21:03:45.011Z,22.10
2022-12-28T21:06:13.963Z,24.57
2022-12-28T21:08:42.161Z,21.93
2022-12-28T21:11:12.641Z,22.60
2022-12-28T21:13:44.440Z,23.30
2022-12-28T21:16:17.517Z,24.80
2022-12-28T21:18:46.650Z,24.07
2022-12-28T21:21:16.420Z,26.67
2022-12-28T21:23:45.217Z,27.07
2022-12-28T21:26:16.781Z,27.00
2022-12-28T21:28:44.884Z,25.90
2022-12-28T21:31:17.413Z,24.07
2022-12-28T21:33:46.250Z,29.13
2022-12-28T21:36:21.373Z,26.07
2022-12-28T21:38:52.107Z,23.73
2022-12-28T21:41:41.709Z,23.63
2022-12-28T21:44:11.708Z,23.00
2022-12-28T21:46:39.579Z,25.27
2022-12-28T21:49:09.728Z,24.77
2022-12-28T21:51:46.467Z,27.57
2022-12-28T21:54:21.354Z,22.23
2022-12-28T21:57:05.445Z,22.37
2022-12-28T21:59:37.137Z,22.73
2022-12-28T22:02:37.615Z,24.30
2022-12-28T22:05:25.446Z,23.70
2022-12-28T22:08:15.455Z,29.23
2022-12-28T22:11:03.526Z,29.17
2022-12-28T22:13:34.063Z,30.70
2022-12-28T22:16:03.738Z,30.23
2022-12-28T22:19:00.791Z,25.23
2022-12-28T22:21:26.592Z,26.90
2022-12-28T22:23:58.079Z,25.47
2022-12-28T22:29:28.180Z,21.77
2022-12-28T22:31:56.697Z,26.83
2022-12-28T22:34:26.873Z,20.60
2022-12-28T22:36:55.862Z,22.10
2022-12-28T22:39:25.492Z,23.17
2022-12-28T22:41:56.272Z,21.80
2022-12-28T22:44:24.131Z,23.57
2022-12-28T22:46:52.930Z,24.07
2022-12-28T22:49:25.465Z,22.20
2022-12-28T22:54:37.313Z,25.47
2022-12-28T22:57:09.609Z,21.17
2022-12-28T22:59:41.656Z,21.93
2022-12-28T23:02:09.732Z,20.50
2022-12-28T23:04:38.024Z,22.27
2022-12-28T23:07:06.085Z,23.20
2022-12-28T23:09:34.809Z,22.80
2022-12-28T23:12:04.422Z,22.03
2022-12-28T23:14:56.881Z,22.30
2022-12-28T23:17:26.638Z,20.87
2022-12-28T23:20:15.856Z,22.93
2022-12-28T23:23:04.096Z,22.07
2022-12-28T23:25:51.467Z,20.20
2022-12-28T23:31:06.113Z,20.97
2022-12-28T23:33:37.049Z,20.57
2022-12-28T23:36:05.032Z,22.63
2022-12-28T23:38:34.958Z,20.97
2022-12-28T23:41:25.451Z,21.67
2022-12-28T23:43:56.217Z,20.80
2022-12-28T23:46:24.121Z,19.30
2022-12-28T23:48:53.486Z,21.33
2022-12-28T23:51:22.261Z,20.63
2022-12-28T23:53:50.116Z,20.93
2022-12-28T23:56:20.753Z,22.27
2022-12-28T23:58:53.318Z,23.57
